sensor_id;sensor_type;location;lat;lon;timestamp;P1;durP1;ratioP1;P2;durP2;ratioP2
40993;SDS011;26722;43.212;27.932;2024-01-07T00:00:38;21.33;;;6.18;;
40993;SDS011;26722;43.212;27.932;2024-01-07T00:03:03;18.48;;;6.28;;
40993;SDS011;26722;43.212;27.932;2024-01-07T00:05:28;16.60;;;6.15;;
40993;SDS011;26722;43.212;27.932;2024-01-07T00:07:54;16.30;;;6.20;;
40993;SDS011;26722;43.212;27.932;2024-01-07T00:10:19;17.48;;;6.25;;
40993;SDS011;26722;43.212;27.932;2024-01-07T00:12:44;20.63;;;6.63;;
40993;SDS011;26722;43.212;27.932;2024-01-07T00:15:10;23.92;;;6.70;;
40993;SDS011;26722;43.212;27.932;2024-01-07T00:17:35;19.80;;;6.30;;
40993;SDS011;26722;43.212;27.932;2024-01-07T00:20:00;21.02;;;6.10;;
40993;SDS011;26722;43.212;27.932;2024-01-07T00:22:25;21.08;;;6.03;;
40993;SDS011;26722;43.212;27.932;2024-01-07T00:24:51;23.25;;;6.32;;
40993;SDS011;26722;43.212;27.932;2024-01-07T00:27:16;23.13;;;6.03;;
40993;SDS011;26722;43.212;27.932;2024-01-07T00:29:41;17.10;;;6.30;;
40993;SDS011;26722;43.212;27.932;2024-01-07T00:32:07;19.15;;;6.47;;
40993;SDS011;26722;43.212;27.932;2024-01-07T00:34:32;19.00;;;6.30;;
40993;SDS011;26722;43.212;27.932;2024-01-07T00:36:57;20.85;;;6.32;;
40993;SDS011;26722;43.212;27.932;2024-01-07T00:39:22;21.48;;;6.30;;
40993;SDS011;26722;43.212;27.932;2024-01-07T00:41:48;17.27;;;6.60;;
40993;SDS011;26722;43.212;27.932;2024-01-07T00:44:13;24.42;;;7.00;;
40993;SDS011;26722;43.212;27.932;2024-01-07T00:46:38;21.88;;;6.53;;
40993;SDS011;26722;43.212;27.932;2024-01-07T00:49:03;21.02;;;6.35;;
40993;SDS011;26722;43.212;27.932;2024-01-07T00:51:29;21.92;;;6.03;;
40993;SDS011;26722;43.212;27.932;2024-01-07T00:53:54;21.63;;;5.80;;
40993;SDS011;26722;43.212;27.932;2024-01-07T00:56:19;19.63;;;6.05;;
40993;SDS011;26722;43.212;27.932;2024-01-07T00:58:44;19.08;;;6.38;;
40993;SDS011;26722;43.212;27.932;2024-01-07T01:01:10;15.40;;;5.82;;
40993;SDS011;26722;43.212;27.932;2024-01-07T01:03:35;17.60;;;5.65;;
40993;SDS011;26722;43.212;27.932;2024-01-07T01:06:00;14.68;;;5.03;;
40993;SDS011;26722;43.212;27.932;2024-01-07T01:08:27;15.20;;;5.18;;
40993;SDS011;26722;43.212;27.932;2024-01-07T01:10:52;14.73;;;5.63;;
40993;SDS011;26722;43.212;27.932;2024-01-07T01:13:18;13.63;;;4.85;;
40993;SDS011;26722;43.212;27.932;2024-01-07T01:15:43;22.70;;;5.13;;
40993;SDS011;26722;43.212;27.932;2024-01-07T01:18:08;17.52;;;5.45;;
40993;SDS011;26722;43.212;27.932;2024-01-07T01:20:33;11.93;;;4.72;;
40993;SDS011;26722;43.212;27.932;2024-01-07T01:22:59;13.60;;;4.88;;
40993;SDS011;26722;43.212;27.932;2024-01-07T01:25:24;16.85;;;4.68;;
40993;SDS011;26722;43.212;27.932;2024-01-07T01:27:49;11.65;;;4.28;;
40993;SDS011;26722;43.212;27.932;2024-01-07T01:30:15;19.92;;;5.50;;
40993;SDS011;26722;43.212;27.932;2024-01-07T01:32:41;16.67;;;5.32;;
40993;SDS011;26722;43.212;27.932;2024-01-07T01:35:06;18.35;;;6.05;;
40993;SDS011;26722;43.212;27.932;2024-01-07T01:37:32;21.73;;;6.22;;
40993;SDS011;26722;43.212;27.932;2024-01-07T01:40:00;25.08;;;6.05;;
40993;SDS011;26722;43.212;27.932;2024-01-07T01:42:25;23.88;;;6.60;;
40993;SDS011;26722;43.212;27.932;2024-01-07T01:44:50;25.58;;;6.75;;
40993;SDS011;26722;43.212;27.932;2024-01-07T01:47:17;22.25;;;6.70;;
40993;SDS011;26722;43.212;27.932;2024-01-07T01:49:42;20.65;;;6.82;;
40993;SDS011;26722;43.212;27.932;2024-01-07T01:52:08;20.10;;;6.03;;
40993;SDS011;26722;43.212;27.932;2024-01-07T01:54:33;24.00;;;6.38;;
40993;SDS011;26722;43.212;27.932;2024-01-07T01:56:59;16.73;;;6.40;;
40993;SDS011;26722;43.212;27.932;2024-01-07T01:59:24;19.45;;;7.03;;
40993;SDS011;26722;43.212;27.932;2024-01-07T02:01:50;22.83;;;6.40;;
40993;SDS011;26722;43.212;27.932;2024-01-07T02:04:15;30.80;;;7.05;;
40993;SDS011;26722;43.212;27.932;2024-01-07T02:06:41;20.38;;;6.95;;
40993;SDS011;26722;43.212;27.932;2024-01-07T02:09:06;22.83;;;6.70;;
40993;SDS011;26722;43.212;27.932;2024-01-07T02:11:31;20.10;;;6.88;;
40993;SDS011;26722;43.212;27.932;2024-01-07T02:13:57;21.98;;;7.00;;
40993;SDS011;26722;43.212;27.932;2024-01-07T02:16:22;26.55;;;6.70;;
40993;SDS011;26722;43.212;27.932;2024-01-07T02:18:47;24.13;;;6.35;;
40993;SDS011;26722;43.212;27.932;2024-01-07T02:21:13;22.23;;;6.70;;
40993;SDS011;26722;43.212;27.932;2024-01-07T02:23:39;23.35;;;6.63;;
40993;SDS011;26722;43.212;27.932;2024-01-07T02:26:04;16.10;;;6.40;;
40993;SDS011;26722;43.212;27.932;2024-01-07T02:28:29;26.27;;;6.22;;
40993;SDS011;26722;43.212;27.932;2024-01-07T02:30:55;19.67;;;6.10;;
40993;SDS011;26722;43.212;27.932;2024-01-07T02:33:20;22.58;;;6.63;;
40993;SDS011;26722;43.212;27.932;2024-01-07T02:35:45;19.55;;;5.07;;
40993;SDS011;26722;43.212;27.932;2024-01-07T02:38:11;22.10;;;5.95;;
40993;SDS011;26722;43.212;27.932;2024-01-07T02:40:36;23.83;;;6.32;;
40993;SDS011;26722;43.212;27.932;2024-01-07T02:43:01;18.85;;;5.82;;
40993;SDS011;26722;43.212;27.932;2024-01-07T02:45:26;19.77;;;5.85;;
40993;SDS011;26722;43.212;27.932;2024-01-07T02:47:52;19.05;;;6.40;;
40993;SDS011;26722;43.212;27.932;2024-01-07T02:50:17;18.25;;;6.45;;
40993;SDS011;26722;43.212;27.932;2024-01-07T02:52:42;21.02;;;6.47;;
40993;SDS011;26722;43.212;27.932;2024-01-07T02:55:08;21.70;;;6.10;;
40993;SDS011;26722;43.212;27.932;2024-01-07T02:57:33;20.20;;;6.22;;
40993;SDS011;26722;43.212;27.932;2024-01-07T02:59:58;20.85;;;6.35;;
40993;SDS011;26722;43.212;27.932;2024-01-07T03:02:24;16.33;;;5.90;;
40993;SDS011;26722;43.212;27.932;2024-01-07T03:04:49;20.98;;;6.30;;
40993;SDS011;26722;43.212;27.932;2024-01-07T03:07:14;18.40;;;6.82;;
40993;SDS011;26722;43.212;27.932;2024-01-07T03:09:39;16.63;;;6.03;;
40993;SDS011;26722;43.212;27.932;2024-01-07T03:12:05;23.52;;;6.90;;
40993;SDS011;26722;43.212;27.932;2024-01-07T03:14:30;22.60;;;5.85;;
40993;SDS011;26722;43.212;27.932;2024-01-07T03:16:55;23.17;;;6.68;;
40993;SDS011;26722;43.212;27.932;2024-01-07T03:19:21;17.63;;;6.45;;
40993;SDS011;26722;43.212;27.932;2024-01-07T03:21:47;16.45;;;6.53;;
40993;SDS011;26722;43.212;27.932;2024-01-07T03:24:13;27.60;;;6.40;;
40993;SDS011;26722;43.212;27.932;2024-01-07T03:26:38;23.75;;;6.53;;
40993;SDS011;26722;43.212;27.932;2024-01-07T03:29:03;20.20;;;6.63;;
40993;SDS011;26722;43.212;27.932;2024-01-07T03:31:28;19.38;;;6.00;;
40993;SDS011;26722;43.212;27.932;2024-01-07T03:33:54;20.17;;;6.07;;
40993;SDS011;26722;43.212;27.932;2024-01-07T03:36:19;16.02;;;6.05;;
40993;SDS011;26722;43.212;27.932;2024-01-07T03:38:44;20.60;;;6.22;;
40993;SDS011;26722;43.212;27.932;2024-01-07T03:41:15;14.75;;;5.50;;
40993;SDS011;26722;43.212;27.932;2024-01-07T03:43:40;18.67;;;6.43;;
40993;SDS011;26722;43.212;27.932;2024-01-07T03:46:06;24.60;;;6.80;;
40993;SDS011;26722;43.212;27.932;2024-01-07T03:48:31;18.60;;;6.50;;
40993;SDS011;26722;43.212;27.932;2024-01-07T03:50:56;17.65;;;6.65;;
40993;SDS011;26722;43.212;27.932;2024-01-07T03:53:21;21.65;;;5.90;;
40993;SDS011;26722;43.212;27.932;2024-01-07T03:55:47;18.50;;;6.60;;
40993;SDS011;26722;43.212;27.932;2024-01-07T03:58:12;18.45;;;6.30;;
40993;SDS011;26722;43.212;27.932;2024-01-07T04:00:37;17.05;;;6.10;;
40993;SDS011;26722;43.212;27.932;2024-01-07T04:03:02;19.23;;;5.95;;
40993;SDS011;26722;43.212;27.932;2024-01-07T04:05:28;15.75;;;5.82;;
40993;SDS011;26722;43.212;27.932;2024-01-07T04:07:54;20.25;;;6.32;;
40993;SDS011;26722;43.212;27.932;2024-01-07T04:10:19;18.52;;;5.95;;
40993;SDS011;26722;43.212;27.932;2024-01-07T04:12:45;19.38;;;6.03;;
40993;SDS011;26722;43.212;27.932;2024-01-07T04:15:13;17.63;;;5.72;;
40993;SDS011;26722;43.212;27.932;2024-01-07T04:17:38;14.50;;;5.55;;
40993;SDS011;26722;43.212;27.932;2024-01-07T04:20:03;21.58;;;5.68;;
40993;SDS011;26722;43.212;27.932;2024-01-07T04:22:29;22.08;;;5.57;;
40993;SDS011;26722;43.212;27.932;2024-01-07T04:24:54;23.58;;;6.22;;
40993;SDS011;26722;43.212;27.932;2024-01-07T04:27:19;21.67;;;6.30;;
40993;SDS011;26722;43.212;27.932;2024-01-07T04:29:45;11.80;;;5.90;;
40993;SDS011;26722;43.212;27.932;2024-01-07T04:32:10;15.23;;;5.72;;
40993;SDS011;26722;43.212;27.932;2024-01-07T04:34:35;16.40;;;5.72;;
40993;SDS011;26722;43.212;27.932;2024-01-07T04:37:00;18.55;;;5.63;;
40993;SDS011;26722;43.212;27.932;2024-01-07T04:39:26;19.38;;;6.30;;
40993;SDS011;26722;43.212;27.932;2024-01-07T04:41:51;14.80;;;5.75;;
40993;SDS011;26722;43.212;27.932;2024-01-07T04:44:16;16.33;;;6.88;;
40993;SDS011;26722;43.212;27.932;2024-01-07T04:46:42;14.95;;;5.63;;
40993;SDS011;26722;43.212;27.932;2024-01-07T04:49:07;19.65;;;5.78;;
40993;SDS011;26722;43.212;27.932;2024-01-07T04:51:32;20.98;;;6.28;;
40993;SDS011;26722;43.212;27.932;2024-01-07T04:53:58;17.02;;;6.03;;
40993;SDS011;26722;43.212;27.932;2024-01-07T04:56:23;22.55;;;5.68;;
40993;SDS011;26722;43.212;27.932;2024-01-07T04:58:48;22.60;;;6.47;;
40993;SDS011;26722;43.212;27.932;2024-01-07T05:01:14;20.10;;;6.63;;
40993;SDS011;26722;43.212;27.932;2024-01-07T05:03:39;18.40;;;6.55;;
40993;SDS011;26722;43.212;27.932;2024-01-07T05:06:04;18.23;;;6.05;;
40993;SDS011;26722;43.212;27.932;2024-01-07T05:08:30;14.60;;;6.07;;
40993;SDS011;26722;43.212;27.932;2024-01-07T05:10:55;19.75;;;6.85;;
40993;SDS011;26722;43.212;27.932;2024-01-07T05:13:21;22.52;;;6.05;;
40993;SDS011;26722;43.212;27.932;2024-01-07T05:15:46;20.42;;;6.40;;
40993;SDS011;26722;43.212;27.932;2024-01-07T05:18:18;17.30;;;6.35;;
40993;SDS011;26722;43.212;27.932;2024-01-07T05:20:43;19.42;;;7.22;;
40993;SDS011;26722;43.212;27.932;2024-01-07T05:23:08;17.65;;;6.35;;
40993;SDS011;26722;43.212;27.932;2024-01-07T05:25:34;19.65;;;6.50;;
40993;SDS011;26722;43.212;27.932;2024-01-07T05:27:59;22.10;;;6.40;;
40993;SDS011;26722;43.212;27.932;2024-01-07T05:30:24;25.08;;;6.88;;
40993;SDS011;26722;43.212;27.932;2024-01-07T05:32:49;25.67;;;6.82;;
40993;SDS011;26722;43.212;27.932;2024-01-07T05:35:15;21.45;;;7.03;;
40993;SDS011;26722;43.212;27.932;2024-01-07T05:37:40;20.50;;;6.43;;
40993;SDS011;26722;43.212;27.932;2024-01-07T05:40:05;22.35;;;6.65;;
40993;SDS011;26722;43.212;27.932;2024-01-07T05:42:31;22.02;;;6.55;;
40993;SDS011;26722;43.212;27.932;2024-01-07T05:44:56;21.33;;;6.82;;
40993;SDS011;26722;43.212;27.932;2024-01-07T05:47:21;16.35;;;6.60;;
40993;SDS011;26722;43.212;27.932;2024-01-07T05:49:47;26.42;;;7.38;;
40993;SDS011;26722;43.212;27.932;2024-01-07T05:52:12;23.77;;;7.07;;
40993;SDS011;26722;43.212;27.932;2024-01-07T05:54:37;19.10;;;7.05;;
40993;SDS011;26722;43.212;27.932;2024-01-07T05:57:03;24.02;;;7.13;;
40993;SDS011;26722;43.212;27.932;2024-01-07T05:59:28;24.27;;;7.25;;
40993;SDS011;26722;43.212;27.932;2024-01-07T06:01:57;24.42;;;7.10;;
40993;SDS011;26722;43.212;27.932;2024-01-07T06:04:23;23.83;;;6.85;;
40993;SDS011;26722;43.212;27.932;2024-01-07T06:06:48;23.70;;;7.35;;
40993;SDS011;26722;43.212;27.932;2024-01-07T06:09:13;23.50;;;6.40;;
40993;SDS011;26722;43.212;27.932;2024-01-07T06:11:38;20.02;;;6.50;;
40993;SDS011;26722;43.212;27.932;2024-01-07T06:14:04;22.63;;;7.38;;
40993;SDS011;26722;43.212;27.932;2024-01-07T06:16:29;26.10;;;6.88;;
40993;SDS011;26722;43.212;27.932;2024-01-07T06:18:54;20.33;;;6.80;;
40993;SDS011;26722;43.212;27.932;2024-01-07T06:21:19;21.55;;;7.25;;
40993;SDS011;26722;43.212;27.932;2024-01-07T06:23:45;21.35;;;6.68;;
40993;SDS011;26722;43.212;27.932;2024-01-07T06:26:10;19.17;;;7.35;;
40993;SDS011;26722;43.212;27.932;2024-01-07T06:28:35;28.48;;;7.03;;
40993;SDS011;26722;43.212;27.932;2024-01-07T06:31:04;23.17;;;6.93;;
40993;SDS011;26722;43.212;27.932;2024-01-07T06:33:29;24.75;;;6.90;;
40993;SDS011;26722;43.212;27.932;2024-01-07T06:35:54;29.42;;;7.22;;
40993;SDS011;26722;43.212;27.932;2024-01-07T06:38:19;25.75;;;6.50;;
40993;SDS011;26722;43.212;27.932;2024-01-07T06:40:45;18.40;;;6.45;;
40993;SDS011;26722;43.212;27.932;2024-01-07T06:43:10;21.35;;;6.97;;
40993;SDS011;26722;43.212;27.932;2024-01-07T06:45:35;17.88;;;5.93;;
40993;SDS011;26722;43.212;27.932;2024-01-07T06:48:01;24.13;;;6.72;;
40993;SDS011;26722;43.212;27.932;2024-01-07T06:50:26;17.35;;;6.90;;
40993;SDS011;26722;43.212;27.932;2024-01-07T06:52:51;15.65;;;6.15;;
40993;SDS011;26722;43.212;27.932;2024-01-07T06:55:16;25.30;;;6.43;;
40993;SDS011;26722;43.212;27.932;2024-01-07T06:57:42;18.42;;;6.50;;
40993;SDS011;26722;43.212;27.932;2024-01-07T07:00:07;16.70;;;6.78;;
40993;SDS011;26722;43.212;27.932;2024-01-07T07:02:33;20.40;;;6.82;;
40993;SDS011;26722;43.212;27.932;2024-01-07T07:04:58;21.67;;;6.13;;
40993;SDS011;26722;43.212;27.932;2024-01-07T07:07:23;22.02;;;6.15;;
40993;SDS011;26722;43.212;27.932;2024-01-07T07:09:49;21.88;;;6.40;;
40993;SDS011;26722;43.212;27.932;2024-01-07T07:12:14;22.45;;;6.00;;
40993;SDS011;26722;43.212;27.932;2024-01-07T07:14:39;20.95;;;5.88;;
40993;SDS011;26722;43.212;27.932;2024-01-07T07:17:05;23.58;;;5.78;;
40993;SDS011;26722;43.212;27.932;2024-01-07T07:19:30;26.20;;;5.90;;
40993;SDS011;26722;43.212;27.932;2024-01-07T07:21:56;25.20;;;6.72;;
40993;SDS011;26722;43.212;27.932;2024-01-07T07:24:21;18.40;;;4.60;;
40993;SDS011;26722;43.212;27.932;2024-01-07T07:26:47;15.73;;;4.60;;
40993;SDS011;26722;43.212;27.932;2024-01-07T07:29:12;18.40;;;4.60;;
40993;SDS011;26722;43.212;27.932;2024-01-07T07:31:37;18.20;;;5.13;;
40993;SDS011;26722;43.212;27.932;2024-01-07T07:34:03;16.83;;;4.55;;
40993;SDS011;26722;43.212;27.932;2024-01-07T07:36:28;17.80;;;4.45;;
40993;SDS011;26722;43.212;27.932;2024-01-07T07:38:54;19.55;;;5.43;;
40993;SDS011;26722;43.212;27.932;2024-01-07T07:41:19;20.45;;;4.65;;
40993;SDS011;26722;43.212;27.932;2024-01-07T07:43:45;21.88;;;5.30;;
40993;SDS011;26722;43.212;27.932;2024-01-07T07:46:10;24.00;;;4.82;;
40993;SDS011;26722;43.212;27.932;2024-01-07T07:48:37;15.68;;;4.60;;
40993;SDS011;26722;43.212;27.932;2024-01-07T07:51:02;15.40;;;4.68;;
40993;SDS011;26722;43.212;27.932;2024-01-07T07:53:27;20.65;;;5.32;;
40993;SDS011;26722;43.212;27.932;2024-01-07T07:55:53;21.30;;;5.70;;
40993;SDS011;26722;43.212;27.932;2024-01-07T07:58:18;10.43;;;4.53;;
40993;SDS011;26722;43.212;27.932;2024-01-07T08:00:43;13.32;;;4.43;;
40993;SDS011;26722;43.212;27.932;2024-01-07T08:03:09;16.15;;;3.97;;
40993;SDS011;26722;43.212;27.932;2024-01-07T08:05:35;11.68;;;3.50;;
40993;SDS011;26722;43.212;27.932;2024-01-07T08:08:00;16.63;;;3.53;;
40993;SDS011;26722;43.212;27.932;2024-01-07T08:10:25;13.25;;;3.42;;
40993;SDS011;26722;43.212;27.932;2024-01-07T08:12:50;16.35;;;3.55;;
40993;SDS011;26722;43.212;27.932;2024-01-07T08:15:16;11.35;;;3.28;;
40993;SDS011;26722;43.212;27.932;2024-01-07T08:17:41;9.73;;;3.00;;
40993;SDS011;26722;43.212;27.932;2024-01-07T08:20:09;10.02;;;2.78;;
40993;SDS011;26722;43.212;27.932;2024-01-07T08:22:34;8.90;;;2.50;;
40993;SDS011;26722;43.212;27.932;2024-01-07T08:24:59;10.73;;;2.00;;
40993;SDS011;26722;43.212;27.932;2024-01-07T08:27:24;15.40;;;2.28;;
40993;SDS011;26722;43.212;27.932;2024-01-07T08:29:50;11.05;;;1.55;;
40993;SDS011;26722;43.212;27.932;2024-01-07T08:32:15;14.60;;;1.75;;
40993;SDS011;26722;43.212;27.932;2024-01-07T08:34:40;8.57;;;1.70;;
40993;SDS011;26722;43.212;27.932;2024-01-07T08:37:06;15.55;;;2.08;;
40993;SDS011;26722;43.212;27.932;2024-01-07T08:39:32;6.03;;;2.00;;
40993;SDS011;26722;43.212;27.932;2024-01-07T08:41:57;7.43;;;1.45;;
40993;SDS011;26722;43.212;27.932;2024-01-07T08:44:22;7.25;;;1.67;;
40993;SDS011;26722;43.212;27.932;2024-01-07T08:46:48;9.45;;;1.60;;
40993;SDS011;26722;43.212;27.932;2024-01-07T08:49:13;8.68;;;1.83;;
40993;SDS011;26722;43.212;27.932;2024-01-07T08:51:39;15.05;;;1.83;;
40993;SDS011;26722;43.212;27.932;2024-01-07T08:54:04;7.75;;;1.33;;
40993;SDS011;26722;43.212;27.932;2024-01-07T08:56:29;6.32;;;1.33;;
40993;SDS011;26722;43.212;27.932;2024-01-07T08:58:55;10.15;;;2.17;;
40993;SDS011;26722;43.212;27.932;2024-01-07T09:01:20;13.52;;;1.77;;
40993;SDS011;26722;43.212;27.932;2024-01-07T09:03:45;13.07;;;1.48;;
40993;SDS011;26722;43.212;27.932;2024-01-07T09:06:11;10.32;;;1.83;;
40993;SDS011;26722;43.212;27.932;2024-01-07T09:08:36;13.05;;;1.58;;
40993;SDS011;26722;43.212;27.932;2024-01-07T09:11:03;16.13;;;1.80;;
40993;SDS011;26722;43.212;27.932;2024-01-07T09:13:29;19.35;;;1.50;;
40993;SDS011;26722;43.212;27.932;2024-01-07T09:15:54;10.55;;;1.92;;
40993;SDS011;26722;43.212;27.932;2024-01-07T09:18:19;11.27;;;2.58;;
40993;SDS011;26722;43.212;27.932;2024-01-07T09:20:44;11.10;;;2.10;;
40993;SDS011;26722;43.212;27.932;2024-01-07T09:23:10;23.80;;;3.45;;
40993;SDS011;26722;43.212;27.932;2024-01-07T09:25:35;19.85;;;3.10;;
40993;SDS011;26722;43.212;27.932;2024-01-07T09:28:00;20.58;;;2.47;;
40993;SDS011;26722;43.212;27.932;2024-01-07T09:30:26;19.15;;;3.28;;
40993;SDS011;26722;43.212;27.932;2024-01-07T09:32:51;21.90;;;3.67;;
40993;SDS011;26722;43.212;27.932;2024-01-07T09:35:16;22.60;;;3.00;;
40993;SDS011;26722;43.212;27.932;2024-01-07T09:37:41;28.63;;;3.90;;
40993;SDS011;26722;43.212;27.932;2024-01-07T09:40:07;26.35;;;4.10;;
40993;SDS011;26722;43.212;27.932;2024-01-07T09:42:33;20.52;;;3.50;;
40993;SDS011;26722;43.212;27.932;2024-01-07T09:45:00;25.90;;;3.80;;
40993;SDS011;26722;43.212;27.932;2024-01-07T09:47:28;23.27;;;4.07;;
40993;SDS011;26722;43.212;27.932;2024-01-07T09:49:53;36.72;;;3.53;;
40993;SDS011;26722;43.212;27.932;2024-01-07T09:52:19;26.58;;;3.75;;
40993;SDS011;26722;43.212;27.932;2024-01-07T09:54:45;37.42;;;4.38;;
40993;SDS011;26722;43.212;27.932;2024-01-07T09:57:13;23.80;;;3.70;;
40993;SDS011;26722;43.212;27.932;2024-01-07T09:59:38;31.45;;;4.78;;
40993;SDS011;26722;43.212;27.932;2024-01-07T10:02:04;29.00;;;4.10;;
40993;SDS011;26722;43.212;27.932;2024-01-07T10:04:29;27.40;;;4.28;;
40993;SDS011;26722;43.212;27.932;2024-01-07T10:06:55;33.40;;;4.07;;
40993;SDS011;26722;43.212;27.932;2024-01-07T10:09:24;33.13;;;5.18;;
40993;SDS011;26722;43.212;27.932;2024-01-07T10:11:51;33.15;;;3.97;;
40993;SDS011;26722;43.212;27.932;2024-01-07T10:14:17;33.30;;;4.50;;
40993;SDS011;26722;43.212;27.932;2024-01-07T10:16:42;37.63;;;5.10;;
40993;SDS011;26722;43.212;27.932;2024-01-07T10:19:07;36.67;;;4.25;;
40993;SDS011;26722;43.212;27.932;2024-01-07T10:21:33;38.22;;;4.85;;
40993;SDS011;26722;43.212;27.932;2024-01-07T10:24:11;30.77;;;4.40;;
40993;SDS011;26722;43.212;27.932;2024-01-07T10:26:42;33.50;;;4.20;;
40993;SDS011;26722;43.212;27.932;2024-01-07T10:29:08;39.20;;;4.80;;
40993;SDS011;26722;43.212;27.932;2024-01-07T10:31:33;47.20;;;4.43;;
40993;SDS011;26722;43.212;27.932;2024-01-07T10:33:59;30.85;;;5.00;;
40993;SDS011;26722;43.212;27.932;2024-01-07T10:36:24;28.48;;;4.68;;
40993;SDS011;26722;43.212;27.932;2024-01-07T10:38:50;40.22;;;5.25;;
40993;SDS011;26722;43.212;27.932;2024-01-07T10:41:18;29.88;;;4.80;;
40993;SDS011;26722;43.212;27.932;2024-01-07T10:43:47;41.60;;;5.57;;
40993;SDS011;26722;43.212;27.932;2024-01-07T10:46:13;36.00;;;4.78;;
40993;SDS011;26722;43.212;27.932;2024-01-07T10:48:39;46.55;;;6.43;;
40993;SDS011;26722;43.212;27.932;2024-01-07T10:51:06;40.25;;;4.45;;
40993;SDS011;26722;43.212;27.932;2024-01-07T10:53:33;50.35;;;5.57;;
40993;SDS011;26722;43.212;27.932;2024-01-07T10:56:00;45.20;;;5.07;;
40993;SDS011;26722;43.212;27.932;2024-01-07T10:58:25;45.30;;;6.15;;
40993;SDS011;26722;43.212;27.932;2024-01-07T11:00:51;44.15;;;5.68;;
40993;SDS011;26722;43.212;27.932;2024-01-07T11:08:28;42.15;;;6.00;;
40993;SDS011;26722;43.212;27.932;2024-01-07T11:11:07;46.03;;;5.95;;
40993;SDS011;26722;43.212;27.932;2024-01-07T11:13:38;51.22;;;5.32;;
40993;SDS011;26722;43.212;27.932;2024-01-07T11:16:04;47.00;;;5.88;;
40993;SDS011;26722;43.212;27.932;2024-01-07T11:18:30;49.72;;;5.72;;
40993;SDS011;26722;43.212;27.932;2024-01-07T11:20:59;42.05;;;5.55;;
40993;SDS011;26722;43.212;27.932;2024-01-07T11:23:26;46.38;;;6.00;;
40993;SDS011;26722;43.212;27.932;2024-01-07T11:26:12;43.97;;;4.82;;
40993;SDS011;26722;43.212;27.932;2024-01-07T11:28:47;42.60;;;5.53;;
40993;SDS011;26722;43.212;27.932;2024-01-07T11:31:17;36.28;;;6.60;;
40993;SDS011;26722;43.212;27.932;2024-01-07T11:33:43;58.58;;;5.90;;
40993;SDS011;26722;43.212;27.932;2024-01-07T11:36:10;52.95;;;6.20;;
40993;SDS011;26722;43.212;27.932;2024-01-07T11:38:36;49.03;;;6.18;;
40993;SDS011;26722;43.212;27.932;2024-01-07T11:41:04;45.95;;;6.72;;
40993;SDS011;26722;43.212;27.932;2024-01-07T11:43:30;49.28;;;6.97;;
40993;SDS011;26722;43.212;27.932;2024-01-07T11:45:55;43.45;;;6.32;;
40993;SDS011;26722;43.212;27.932;2024-01-07T11:48:21;47.17;;;5.97;;
40993;SDS011;26722;43.212;27.932;2024-01-07T11:50:46;39.35;;;6.40;;
40993;SDS011;26722;43.212;27.932;2024-01-07T11:53:12;45.00;;;5.57;;
40993;SDS011;26722;43.212;27.932;2024-01-07T11:55:37;49.33;;;6.65;;
40993;SDS011;26722;43.212;27.932;2024-01-07T11:58:03;42.30;;;5.40;;
40993;SDS011;26722;43.212;27.932;2024-01-07T12:00:31;47.28;;;5.88;;
40993;SDS011;26722;43.212;27.932;2024-01-07T12:02:58;47.63;;;4.95;;
40993;SDS011;26722;43.212;27.932;2024-01-07T12:05:23;41.85;;;5.57;;
40993;SDS011;26722;43.212;27.932;2024-01-07T12:07:49;39.15;;;5.65;;
40993;SDS011;26722;43.212;27.932;2024-01-07T12:10:14;43.53;;;5.93;;
40993;SDS011;26722;43.212;27.932;2024-01-07T12:12:40;46.95;;;5.38;;
40993;SDS011;26722;43.212;27.932;2024-01-07T12:15:07;46.97;;;5.68;;
40993;SDS011;26722;43.212;27.932;2024-01-07T12:17:32;48.20;;;6.65;;
40993;SDS011;26722;43.212;27.932;2024-01-07T12:19:59;44.40;;;5.75;;
40993;SDS011;26722;43.212;27.932;2024-01-07T12:22:24;47.00;;;5.50;;
40993;SDS011;26722;43.212;27.932;2024-01-07T12:25:04;41.80;;;5.75;;
40993;SDS011;26722;43.212;27.932;2024-01-07T12:27:30;40.15;;;5.45;;
40993;SDS011;26722;43.212;27.932;2024-01-07T12:29:58;49.28;;;5.53;;
40993;SDS011;26722;43.212;27.932;2024-01-07T12:32:27;33.47;;;5.13;;
40993;SDS011;26722;43.212;27.932;2024-01-07T12:34:52;42.83;;;4.47;;
40993;SDS011;26722;43.212;27.932;2024-01-07T12:37:18;43.42;;;5.82;;
40993;SDS011;26722;43.212;27.932;2024-01-07T12:39:43;45.22;;;5.15;;
40993;SDS011;26722;43.212;27.932;2024-01-07T12:42:08;43.10;;;4.95;;
40993;SDS011;26722;43.212;27.932;2024-01-07T12:44:34;38.33;;;5.65;;
40993;SDS011;26722;43.212;27.932;2024-01-07T12:47:01;44.70;;;5.47;;
40993;SDS011;26722;43.212;27.932;2024-01-07T12:49:27;36.00;;;5.45;;
40993;SDS011;26722;43.212;27.932;2024-01-07T12:51:52;51.55;;;6.18;;
40993;SDS011;26722;43.212;27.932;2024-01-07T12:54:17;44.97;;;4.88;;
40993;SDS011;26722;43.212;27.932;2024-01-07T12:56:44;45.88;;;4.68;;
40993;SDS011;26722;43.212;27.932;2024-01-07T12:59:09;48.25;;;5.93;;
40993;SDS011;26722;43.212;27.932;2024-01-07T13:01:34;33.67;;;5.13;;
40993;SDS011;26722;43.212;27.932;2024-01-07T13:04:01;47.83;;;5.15;;
40993;SDS011;26722;43.212;27.932;2024-01-07T13:06:27;34.53;;;5.05;;
40993;SDS011;26722;43.212;27.932;2024-01-07T13:08:52;43.75;;;5.63;;
40993;SDS011;26722;43.212;27.932;2024-01-07T13:11:18;44.97;;;5.32;;
40993;SDS011;26722;43.212;27.932;2024-01-07T13:13:43;42.20;;;5.70;;
40993;SDS011;26722;43.212;27.932;2024-01-07T13:16:08;41.22;;;5.30;;
40993;SDS011;26722;43.212;27.932;2024-01-07T13:18:33;49.33;;;5.25;;
40993;SDS011;26722;43.212;27.932;2024-01-07T13:20:59;55.42;;;6.53;;
40993;SDS011;26722;43.212;27.932;2024-01-07T13:23:24;42.65;;;5.97;;
40993;SDS011;26722;43.212;27.932;2024-01-07T13:25:51;48.15;;;4.78;;
40993;SDS011;26722;43.212;27.932;2024-01-07T13:28:16;44.80;;;5.65;;
40993;SDS011;26722;43.212;27.932;2024-01-07T13:30:41;60.85;;;6.38;;
40993;SDS011;26722;43.212;27.932;2024-01-07T13:33:07;46.42;;;5.38;;
40993;SDS011;26722;43.212;27.932;2024-01-07T13:35:33;52.92;;;6.05;;
40993;SDS011;26722;43.212;27.932;2024-01-07T13:37:58;54.70;;;6.57;;
40993;SDS011;26722;43.212;27.932;2024-01-07T13:40:23;57.40;;;6.25;;
40993;SDS011;26722;43.212;27.932;2024-01-07T13:42:48;46.50;;;5.40;;
40993;SDS011;26722;43.212;27.932;2024-01-07T13:45:16;50.80;;;6.13;;
40993;SDS011;26722;43.212;27.932;2024-01-07T13:47:41;51.83;;;5.82;;
40993;SDS011;26722;43.212;27.932;2024-01-07T13:50:07;46.60;;;5.18;;
40993;SDS011;26722;43.212;27.932;2024-01-07T13:52:34;41.95;;;5.07;;
40993;SDS011;26722;43.212;27.932;2024-01-07T13:54:59;34.92;;;5.85;;
40993;SDS011;26722;43.212;27.932;2024-01-07T13:57:25;45.63;;;5.82;;
40993;SDS011;26722;43.212;27.932;2024-01-07T13:59:50;42.22;;;5.90;;
40993;SDS011;26722;43.212;27.932;2024-01-07T14:02:15;52.70;;;5.60;;
40993;SDS011;26722;43.212;27.932;2024-01-07T14:04:44;41.30;;;5.90;;
40993;SDS011;26722;43.212;27.932;2024-01-07T14:07:09;39.58;;;5.15;;
40993;SDS011;26722;43.212;27.932;2024-01-07T14:09:35;47.67;;;5.80;;
40993;SDS011;26722;43.212;27.932;2024-01-07T14:12:00;41.13;;;5.22;;
40993;SDS011;26722;43.212;27.932;2024-01-07T14:14:27;53.28;;;6.03;;
40993;SDS011;26722;43.212;27.932;2024-01-07T14:16:52;53.95;;;6.63;;